CheckWX is a tool to help pilots better visualize weather data.  It is not intended as a substitute for an official pre-flight weather briefing.

17:09:44 UTC

VTSK TAF
Pattani Airport
Thailand
TAF VTSK 181100Z 1812/1912 09003KT 9999 SCT020 SCT100 TEMPO 1812/1818 5000 RA SCT015 BKN100 TEMPO 1822/1904 5000 RA SCT015 BKN100 TEMPO 1904/1910 5000 RA SCT015 BKN100

Oct-18@
12:00 UTC

Oct-18 @ 12:00 UTC

Oct-19@
12:00 UTC

Oct-19 @ 12:00 UTC

TAF VTSK 181100Z 1812/1912 09003KT 9999 SCT020 SCT100
Wind
  • 090° at 3 KTS
Cloud Levels
  • Scattered at 2,000' AGL
  • Scattered at 10,000' AGL

Oct-18@
12:00 UTC

Oct-18 @ 12:00 UTC

Oct-18@
18:00 UTC

Oct-18 @ 18:00 UTC

TEMPO 1812/1818 5000 RA SCT015 BKN100

Temporary

Temporary Changes expected for less than half the time period

Conditions
Rain
Cloud Levels
  • Scattered at 1,500' AGL
  • Broken at 10,000' AGL

Oct-18@
22:00 UTC

Oct-18 @ 22:00 UTC

Oct-19@
04:00 UTC

Oct-19 @ 04:00 UTC

TEMPO 1822/1904 5000 RA SCT015 BKN100

Temporary

Temporary Changes expected for less than half the time period

Conditions
Rain
Cloud Levels
  • Scattered at 1,500' AGL
  • Broken at 10,000' AGL

Oct-19@
04:00 UTC

Oct-19 @ 04:00 UTC

Oct-19@
10:00 UTC

Oct-19 @ 10:00 UTC

TEMPO 1904/1910 5000 RA SCT015 BKN100

Temporary

Temporary Changes expected for less than half the time period

Conditions
Rain
Cloud Levels
  • Scattered at 1,500' AGL
  • Broken at 10,000' AGL